sensor_id;sensor_type;location;lat;lon;timestamp;P1;durP1;ratioP1;P2;durP2;ratioP2
16866;SDS011;8550;52.596;13.320;2023-06-10T00:04:03;5.65;;;2.25;;
16866;SDS011;8550;52.596;13.320;2023-06-10T00:09:05;7.00;;;2.40;;
16866;SDS011;8550;52.596;13.320;2023-06-10T00:14:11;10.53;;;2.53;;
16866;SDS011;8550;52.596;13.320;2023-06-10T00:19:14;9.48;;;2.47;;
16866;SDS011;8550;52.596;13.320;2023-06-10T00:24:15;9.65;;;2.80;;
16866;SDS011;8550;52.596;13.320;2023-06-10T00:29:19;5.67;;;2.40;;
16866;SDS011;8550;52.596;13.320;2023-06-10T00:34:21;10.13;;;2.50;;
16866;SDS011;8550;52.596;13.320;2023-06-10T00:39:23;7.55;;;2.47;;
16866;SDS011;8550;52.596;13.320;2023-06-10T00:44:26;8.53;;;2.37;;
16866;SDS011;8550;52.596;13.320;2023-06-10T00:49:28;10.00;;;3.07;;
16866;SDS011;8550;52.596;13.320;2023-06-10T00:54:30;7.88;;;2.58;;
16866;SDS011;8550;52.596;13.320;2023-06-10T00:59:34;9.32;;;2.40;;
16866;SDS011;8550;52.596;13.320;2023-06-10T01:04:36;10.30;;;2.80;;
16866;SDS011;8550;52.596;13.320;2023-06-10T01:09:40;12.20;;;2.67;;
16866;SDS011;8550;52.596;13.320;2023-06-10T01:14:52;8.45;;;2.10;;
16866;SDS011;8550;52.596;13.320;2023-06-10T01:19:54;9.53;;;2.40;;
16866;SDS011;8550;52.596;13.320;2023-06-10T01:24:58;8.73;;;2.50;;
16866;SDS011;8550;52.596;13.320;2023-06-10T01:30:03;6.80;;;2.25;;
16866;SDS011;8550;52.596;13.320;2023-06-10T01:35:11;13.13;;;2.60;;
16866;SDS011;8550;52.596;13.320;2023-06-10T01:40:16;6.13;;;2.20;;
16866;SDS011;8550;52.596;13.320;2023-06-10T01:45:18;4.95;;;1.92;;
16866;SDS011;8550;52.596;13.320;2023-06-10T01:50:20;10.73;;;2.97;;
16866;SDS011;8550;52.596;13.320;2023-06-10T01:55:23;7.70;;;1.83;;
16866;SDS011;8550;52.596;13.320;2023-06-10T02:00:25;8.95;;;2.50;;
16866;SDS011;8550;52.596;13.320;2023-06-10T02:05:27;9.52;;;2.20;;
16866;SDS011;8550;52.596;13.320;2023-06-10T02:10:30;8.37;;;2.37;;
16866;SDS011;8550;52.596;13.320;2023-06-10T02:15:32;7.35;;;2.28;;
16866;SDS011;8550;52.596;13.320;2023-06-10T02:20:35;10.20;;;2.35;;
16866;SDS011;8550;52.596;13.320;2023-06-10T02:25:38;13.53;;;2.73;;
16866;SDS011;8550;52.596;13.320;2023-06-10T02:30:40;8.73;;;2.30;;
16866;SDS011;8550;52.596;13.320;2023-06-10T02:35:42;7.03;;;1.85;;
16866;SDS011;8550;52.596;13.320;2023-06-10T02:40:46;6.85;;;2.22;;
16866;SDS011;8550;52.596;13.320;2023-06-10T02:45:48;9.37;;;2.47;;
16866;SDS011;8550;52.596;13.320;2023-06-10T02:50:50;8.05;;;2.53;;
16866;SDS011;8550;52.596;13.320;2023-06-10T02:55:53;8.27;;;2.35;;
16866;SDS011;8550;52.596;13.320;2023-06-10T03:00:55;10.43;;;2.63;;
16866;SDS011;8550;52.596;13.320;2023-06-10T03:05:58;8.98;;;2.13;;
16866;SDS011;8550;52.596;13.320;2023-06-10T03:11:01;9.50;;;2.80;;
16866;SDS011;8550;52.596;13.320;2023-06-10T03:16:03;10.33;;;2.97;;
16866;SDS011;8550;52.596;13.320;2023-06-10T03:21:05;8.03;;;2.10;;
16866;SDS011;8550;52.596;13.320;2023-06-10T03:26:10;5.80;;;2.25;;
16866;SDS011;8550;52.596;13.320;2023-06-10T03:31:13;11.25;;;2.45;;
16866;SDS011;8550;52.596;13.320;2023-06-10T03:36:16;5.77;;;2.10;;
16866;SDS011;8550;52.596;13.320;2023-06-10T03:41:20;8.38;;;2.70;;
16866;SDS011;8550;52.596;13.320;2023-06-10T03:46:22;10.27;;;2.70;;
16866;SDS011;8550;52.596;13.320;2023-06-10T03:51:24;7.63;;;2.27;;
16866;SDS011;8550;52.596;13.320;2023-06-10T03:56:28;9.35;;;2.25;;
16866;SDS011;8550;52.596;13.320;2023-06-10T04:01:30;7.70;;;2.50;;
16866;SDS011;8550;52.596;13.320;2023-06-10T04:06:31;7.93;;;2.40;;
16866;SDS011;8550;52.596;13.320;2023-06-10T04:11:35;7.37;;;2.23;;
16866;SDS011;8550;52.596;13.320;2023-06-10T04:16:37;11.35;;;2.80;;
16866;SDS011;8550;52.596;13.320;2023-06-10T04:21:39;10.80;;;3.08;;
16866;SDS011;8550;52.596;13.320;2023-06-10T04:26:42;9.40;;;2.77;;
16866;SDS011;8550;52.596;13.320;2023-06-10T04:31:45;11.55;;;2.95;;
16866;SDS011;8550;52.596;13.320;2023-06-10T04:36:47;8.73;;;2.92;;
16866;SDS011;8550;52.596;13.320;2023-06-10T04:41:51;8.37;;;2.67;;
16866;SDS011;8550;52.596;13.320;2023-06-10T04:46:53;7.68;;;2.97;;
16866;SDS011;8550;52.596;13.320;2023-06-10T04:51:55;7.68;;;2.60;;
16866;SDS011;8550;52.596;13.320;2023-06-10T04:56:59;7.13;;;3.00;;
16866;SDS011;8550;52.596;13.320;2023-06-10T05:02:01;10.07;;;3.23;;
16866;SDS011;8550;52.596;13.320;2023-06-10T05:07:03;10.70;;;3.38;;
16866;SDS011;8550;52.596;13.320;2023-06-10T05:12:07;7.97;;;3.13;;
16866;SDS011;8550;52.596;13.320;2023-06-10T05:17:10;9.37;;;3.03;;
16866;SDS011;8550;52.596;13.320;2023-06-10T05:22:12;6.32;;;2.90;;
16866;SDS011;8550;52.596;13.320;2023-06-10T05:27:17;9.35;;;3.88;;
16866;SDS011;8550;52.596;13.320;2023-06-10T05:32:19;8.07;;;3.10;;
16866;SDS011;8550;52.596;13.320;2023-06-10T05:37:22;8.07;;;3.35;;
16866;SDS011;8550;52.596;13.320;2023-06-10T05:42:25;10.95;;;3.30;;
16866;SDS011;8550;52.596;13.320;2023-06-10T05:47:27;9.80;;;3.23;;
16866;SDS011;8550;52.596;13.320;2023-06-10T05:52:29;7.17;;;3.37;;
16866;SDS011;8550;52.596;13.320;2023-06-10T05:57:32;10.48;;;3.72;;
16866;SDS011;8550;52.596;13.320;2023-06-10T06:02:34;7.90;;;3.30;;
16866;SDS011;8550;52.596;13.320;2023-06-10T06:07:36;8.77;;;3.13;;
16866;SDS011;8550;52.596;13.320;2023-06-10T06:12:40;9.95;;;3.33;;
16866;SDS011;8550;52.596;13.320;2023-06-10T06:17:41;8.18;;;3.30;;
16866;SDS011;8550;52.596;13.320;2023-06-10T06:22:43;8.93;;;3.33;;
16866;SDS011;8550;52.596;13.320;2023-06-10T06:27:47;7.25;;;3.53;;
16866;SDS011;8550;52.596;13.320;2023-06-10T06:32:48;6.72;;;3.55;;
16866;SDS011;8550;52.596;13.320;2023-06-10T06:37:51;7.83;;;3.17;;
16866;SDS011;8550;52.596;13.320;2023-06-10T06:42:55;9.63;;;3.23;;
16866;SDS011;8550;52.596;13.320;2023-06-10T06:47:57;7.78;;;3.63;;
16866;SDS011;8550;52.596;13.320;2023-06-10T06:52:59;11.82;;;5.07;;
16866;SDS011;8550;52.596;13.320;2023-06-10T06:58:02;8.43;;;3.30;;
16866;SDS011;8550;52.596;13.320;2023-06-10T07:03:04;6.55;;;3.63;;
16866;SDS011;8550;52.596;13.320;2023-06-10T07:08:06;8.77;;;3.58;;
16866;SDS011;8550;52.596;13.320;2023-06-10T07:13:09;7.47;;;4.03;;
16866;SDS011;8550;52.596;13.320;2023-06-10T07:18:14;7.53;;;3.47;;
16866;SDS011;8550;52.596;13.320;2023-06-10T07:23:17;7.22;;;3.63;;
16866;SDS011;8550;52.596;13.320;2023-06-10T07:28:22;7.83;;;3.83;;
16866;SDS011;8550;52.596;13.320;2023-06-10T07:33:26;9.87;;;4.17;;
16866;SDS011;8550;52.596;13.320;2023-06-10T07:38:28;7.65;;;4.05;;
16866;SDS011;8550;52.596;13.320;2023-06-10T07:43:31;8.23;;;4.18;;
16866;SDS011;8550;52.596;13.320;2023-06-10T07:48:33;7.70;;;3.77;;
16866;SDS011;8550;52.596;13.320;2023-06-10T07:53:35;19.90;;;8.38;;
16866;SDS011;8550;52.596;13.320;2023-06-10T07:58:39;7.95;;;3.85;;
16866;SDS011;8550;52.596;13.320;2023-06-10T08:03:40;6.83;;;3.50;;
16866;SDS011;8550;52.596;13.320;2023-06-10T08:08:43;8.40;;;3.60;;
16866;SDS011;8550;52.596;13.320;2023-06-10T08:13:47;13.15;;;4.30;;
16866;SDS011;8550;52.596;13.320;2023-06-10T08:18:49;8.37;;;4.00;;
16866;SDS011;8550;52.596;13.320;2023-06-10T08:23:52;8.50;;;4.20;;
16866;SDS011;8550;52.596;13.320;2023-06-10T08:28:55;6.82;;;3.90;;
16866;SDS011;8550;52.596;13.320;2023-06-10T08:33:57;10.30;;;4.05;;
16866;SDS011;8550;52.596;13.320;2023-06-10T08:38:59;7.20;;;3.90;;
16866;SDS011;8550;52.596;13.320;2023-06-10T08:44:05;11.00;;;4.32;;
16866;SDS011;8550;52.596;13.320;2023-06-10T08:49:11;8.38;;;4.38;;
16866;SDS011;8550;52.596;13.320;2023-06-10T08:54:21;10.40;;;4.50;;
16866;SDS011;8550;52.596;13.320;2023-06-10T08:59:27;9.05;;;4.47;;
16866;SDS011;8550;52.596;13.320;2023-06-10T09:04:30;8.35;;;4.03;;
16866;SDS011;8550;52.596;13.320;2023-06-10T09:09:32;9.93;;;4.57;;
16866;SDS011;8550;52.596;13.320;2023-06-10T09:14:37;9.87;;;4.33;;
16866;SDS011;8550;52.596;13.320;2023-06-10T09:19:39;11.10;;;3.88;;
16866;SDS011;8550;52.596;13.320;2023-06-10T09:24:42;9.60;;;4.25;;
16866;SDS011;8550;52.596;13.320;2023-06-10T09:29:51;8.40;;;4.20;;
16866;SDS011;8550;52.596;13.320;2023-06-10T09:34:53;8.10;;;3.83;;
16866;SDS011;8550;52.596;13.320;2023-06-10T09:40:02;9.88;;;4.32;;
16866;SDS011;8550;52.596;13.320;2023-06-10T09:45:07;12.23;;;4.97;;
16866;SDS011;8550;52.596;13.320;2023-06-10T09:50:09;9.82;;;4.15;;
16866;SDS011;8550;52.596;13.320;2023-06-10T09:55:11;14.65;;;4.75;;
16866;SDS011;8550;52.596;13.320;2023-06-10T10:00:15;8.97;;;5.00;;
16866;SDS011;8550;52.596;13.320;2023-06-10T10:05:18;9.60;;;4.33;;
16866;SDS011;8550;52.596;13.320;2023-06-10T10:10:20;10.85;;;4.30;;
16866;SDS011;8550;52.596;13.320;2023-06-10T10:15:24;9.98;;;4.15;;
16866;SDS011;8550;52.596;13.320;2023-06-10T10:20:31;7.97;;;4.03;;
16866;SDS011;8550;52.596;13.320;2023-06-10T10:25:37;9.90;;;4.60;;
16866;SDS011;8550;52.596;13.320;2023-06-10T10:30:44;9.05;;;4.30;;
16866;SDS011;8550;52.596;13.320;2023-06-10T10:35:48;8.13;;;4.53;;
16866;SDS011;8550;52.596;13.320;2023-06-10T10:40:51;9.25;;;4.38;;
16866;SDS011;8550;52.596;13.320;2023-06-10T10:46:00;7.90;;;4.43;;
16866;SDS011;8550;52.596;13.320;2023-06-10T10:51:03;6.40;;;4.03;;
16866;SDS011;8550;52.596;13.320;2023-06-10T10:56:06;6.40;;;3.60;;
16866;SDS011;8550;52.596;13.320;2023-06-10T11:01:12;9.27;;;3.65;;
16866;SDS011;8550;52.596;13.320;2023-06-10T11:06:15;7.72;;;3.95;;
16866;SDS011;8550;52.596;13.320;2023-06-10T11:11:18;6.63;;;3.53;;
16866;SDS011;8550;52.596;13.320;2023-06-10T11:16:23;8.88;;;3.88;;
16866;SDS011;8550;52.596;13.320;2023-06-10T11:21:28;6.22;;;3.58;;
16866;SDS011;8550;52.596;13.320;2023-06-10T11:26:30;7.00;;;3.60;;
16866;SDS011;8550;52.596;13.320;2023-06-10T11:31:40;8.15;;;4.70;;
16866;SDS011;8550;52.596;13.320;2023-06-10T11:36:44;7.10;;;3.50;;
16866;SDS011;8550;52.596;13.320;2023-06-10T11:41:46;6.87;;;3.50;;
16866;SDS011;8550;52.596;13.320;2023-06-10T11:46:50;7.83;;;4.07;;
16866;SDS011;8550;52.596;13.320;2023-06-10T11:51:52;8.60;;;4.47;;
16866;SDS011;8550;52.596;13.320;2023-06-10T11:56:57;8.95;;;4.82;;
16866;SDS011;8550;52.596;13.320;2023-06-10T12:02:01;8.80;;;4.20;;
16866;SDS011;8550;52.596;13.320;2023-06-10T12:07:03;8.02;;;5.10;;
16866;SDS011;8550;52.596;13.320;2023-06-10T12:12:05;7.60;;;4.30;;
16866;SDS011;8550;52.596;13.320;2023-06-10T12:17:10;11.13;;;4.00;;
16866;SDS011;8550;52.596;13.320;2023-06-10T12:22:12;5.43;;;3.50;;
16866;SDS011;8550;52.596;13.320;2023-06-10T12:27:16;6.85;;;3.67;;
16866;SDS011;8550;52.596;13.320;2023-06-10T12:32:21;5.37;;;3.70;;
16866;SDS011;8550;52.596;13.320;2023-06-10T12:37:27;5.43;;;3.67;;
16866;SDS011;8550;52.596;13.320;2023-06-10T12:42:29;5.20;;;3.50;;
16866;SDS011;8550;52.596;13.320;2023-06-10T12:47:35;6.65;;;4.20;;
16866;SDS011;8550;52.596;13.320;2023-06-10T12:52:39;6.17;;;4.23;;
16866;SDS011;8550;52.596;13.320;2023-06-10T12:57:48;8.95;;;4.70;;
16866;SDS011;8550;52.596;13.320;2023-06-10T13:02:51;7.75;;;4.47;;
16866;SDS011;8550;52.596;13.320;2023-06-10T13:07:53;8.40;;;5.23;;
16866;SDS011;8550;52.596;13.320;2023-06-10T13:12:56;10.80;;;5.15;;
16866;SDS011;8550;52.596;13.320;2023-06-10T13:18:00;10.73;;;5.70;;
16866;SDS011;8550;52.596;13.320;2023-06-10T13:23:03;8.83;;;5.50;;
16866;SDS011;8550;52.596;13.320;2023-06-10T13:28:05;9.03;;;6.00;;
16866;SDS011;8550;52.596;13.320;2023-06-10T13:33:09;9.60;;;5.70;;
16866;SDS011;8550;52.596;13.320;2023-06-10T13:38:10;9.02;;;5.40;;
16866;SDS011;8550;52.596;13.320;2023-06-10T13:43:12;8.93;;;5.57;;
16866;SDS011;8550;52.596;13.320;2023-06-10T13:48:16;7.20;;;5.28;;
16866;SDS011;8550;52.596;13.320;2023-06-10T13:53:20;7.88;;;5.38;;
16866;SDS011;8550;52.596;13.320;2023-06-10T13:58:22;8.03;;;5.50;;
16866;SDS011;8550;52.596;13.320;2023-06-10T14:03:25;9.30;;;6.13;;
16866;SDS011;8550;52.596;13.320;2023-06-10T14:08:27;9.68;;;5.72;;
16866;SDS011;8550;52.596;13.320;2023-06-10T14:13:30;7.10;;;4.83;;
16866;SDS011;8550;52.596;13.320;2023-06-10T14:18:35;6.97;;;4.60;;
16866;SDS011;8550;52.596;13.320;2023-06-10T14:23:37;7.63;;;4.55;;
16866;SDS011;8550;52.596;13.320;2023-06-10T14:28:38;6.38;;;4.35;;
16866;SDS011;8550;52.596;13.320;2023-06-10T14:33:42;5.70;;;3.93;;
16866;SDS011;8550;52.596;13.320;2023-06-10T14:38:44;7.25;;;4.72;;
16866;SDS011;8550;52.596;13.320;2023-06-10T14:43:47;6.00;;;4.10;;
16866;SDS011;8550;52.596;13.320;2023-06-10T14:48:50;6.00;;;4.57;;
16866;SDS011;8550;52.596;13.320;2023-06-10T14:53:52;10.68;;;4.85;;
16866;SDS011;8550;52.596;13.320;2023-06-10T14:58:54;9.18;;;4.55;;
16866;SDS011;8550;52.596;13.320;2023-06-10T15:03:57;6.23;;;4.80;;
16866;SDS011;8550;52.596;13.320;2023-06-10T15:08:59;6.77;;;4.67;;
16866;SDS011;8550;52.596;13.320;2023-06-10T15:14:01;8.30;;;4.60;;
16866;SDS011;8550;52.596;13.320;2023-06-10T15:19:05;6.25;;;3.88;;
16866;SDS011;8550;52.596;13.320;2023-06-10T15:24:08;9.57;;;4.37;;
16866;SDS011;8550;52.596;13.320;2023-06-10T15:29:11;7.15;;;3.75;;
16866;SDS011;8550;52.596;13.320;2023-06-10T15:34:14;7.60;;;3.53;;
16866;SDS011;8550;52.596;13.320;2023-06-10T15:39:16;6.63;;;4.10;;
16866;SDS011;8550;52.596;13.320;2023-06-10T15:44:18;9.02;;;4.40;;
16866;SDS011;8550;52.596;13.320;2023-06-10T15:49:22;10.18;;;4.35;;
16866;SDS011;8550;52.596;13.320;2023-06-10T15:54:23;7.37;;;4.03;;
16866;SDS011;8550;52.596;13.320;2023-06-10T15:59:25;6.97;;;3.87;;
16866;SDS011;8550;52.596;13.320;2023-06-10T16:04:29;9.00;;;4.30;;
16866;SDS011;8550;52.596;13.320;2023-06-10T16:09:30;7.70;;;4.72;;
16866;SDS011;8550;52.596;13.320;2023-06-10T16:14:32;6.93;;;4.23;;
16866;SDS011;8550;52.596;13.320;2023-06-10T16:19:36;6.43;;;4.25;;
16866;SDS011;8550;52.596;13.320;2023-06-10T16:24:38;7.10;;;3.97;;
16866;SDS011;8550;52.596;13.320;2023-06-10T16:29:40;7.33;;;4.30;;
16866;SDS011;8550;52.596;13.320;2023-06-10T16:34:43;7.43;;;3.63;;
16866;SDS011;8550;52.596;13.320;2023-06-10T16:39:45;6.65;;;4.32;;
16866;SDS011;8550;52.596;13.320;2023-06-10T16:44:47;9.43;;;5.83;;
16866;SDS011;8550;52.596;13.320;2023-06-10T16:49:50;11.57;;;4.50;;
16866;SDS011;8550;52.596;13.320;2023-06-10T16:54:52;6.00;;;3.58;;
16866;SDS011;8550;52.596;13.320;2023-06-10T16:59:54;7.53;;;4.20;;
16866;SDS011;8550;52.596;13.320;2023-06-10T17:04:57;6.20;;;3.50;;
16866;SDS011;8550;52.596;13.320;2023-06-10T17:09:59;8.63;;;3.92;;
16866;SDS011;8550;52.596;13.320;2023-06-10T17:15:01;7.65;;;3.67;;
16866;SDS011;8550;52.596;13.320;2023-06-10T17:20:05;7.10;;;3.47;;
16866;SDS011;8550;52.596;13.320;2023-06-10T17:25:08;6.60;;;3.65;;
16866;SDS011;8550;52.596;13.320;2023-06-10T17:30:10;6.93;;;4.40;;
16866;SDS011;8550;52.596;13.320;2023-06-10T17:35:13;6.50;;;4.10;;
16866;SDS011;8550;52.596;13.320;2023-06-10T17:40:16;6.27;;;3.40;;
16866;SDS011;8550;52.596;13.320;2023-06-10T17:45:18;7.60;;;4.30;;
16866;SDS011;8550;52.596;13.320;2023-06-10T17:50:21;7.05;;;3.33;;
16866;SDS011;8550;52.596;13.320;2023-06-10T17:55:23;6.53;;;3.87;;
16866;SDS011;8550;52.596;13.320;2023-06-10T18:00:25;6.93;;;3.80;;
16866;SDS011;8550;52.596;13.320;2023-06-10T18:05:28;6.57;;;3.65;;
16866;SDS011;8550;52.596;13.320;2023-06-10T18:10:30;5.40;;;3.60;;
16866;SDS011;8550;52.596;13.320;2023-06-10T18:15:32;6.18;;;3.38;;
16866;SDS011;8550;52.596;13.320;2023-06-10T18:20:35;6.18;;;3.90;;
16866;SDS011;8550;52.596;13.320;2023-06-10T18:25:37;6.97;;;3.80;;
16866;SDS011;8550;52.596;13.320;2023-06-10T18:30:39;7.50;;;3.67;;
16866;SDS011;8550;52.596;13.320;2023-06-10T18:35:43;6.75;;;3.55;;
16866;SDS011;8550;52.596;13.320;2023-06-10T18:40:44;7.25;;;3.78;;
16866;SDS011;8550;52.596;13.320;2023-06-10T18:45:46;8.27;;;3.73;;
16866;SDS011;8550;52.596;13.320;2023-06-10T18:50:50;8.50;;;3.88;;
16866;SDS011;8550;52.596;13.320;2023-06-10T18:55:52;7.38;;;3.28;;
16866;SDS011;8550;52.596;13.320;2023-06-10T19:00:56;9.53;;;4.03;;
16866;SDS011;8550;52.596;13.320;2023-06-10T19:05:59;7.93;;;3.08;;
16866;SDS011;8550;52.596;13.320;2023-06-10T19:11:01;6.95;;;3.17;;
16866;SDS011;8550;52.596;13.320;2023-06-10T19:16:04;5.40;;;2.67;;
16866;SDS011;8550;52.596;13.320;2023-06-10T19:21:08;12.50;;;3.07;;
16866;SDS011;8550;52.596;13.320;2023-06-10T19:26:10;6.60;;;2.80;;
16866;SDS011;8550;52.596;13.320;2023-06-10T19:31:12;7.55;;;3.50;;
16866;SDS011;8550;52.596;13.320;2023-06-10T19:36:15;8.40;;;2.40;;
16866;SDS011;8550;52.596;13.320;2023-06-10T19:41:17;10.45;;;3.05;;
16866;SDS011;8550;52.596;13.320;2023-06-10T19:46:20;8.70;;;2.53;;
16866;SDS011;8550;52.596;13.320;2023-06-10T19:51:23;6.20;;;2.30;;
16866;SDS011;8550;52.596;13.320;2023-06-10T19:56:25;4.95;;;2.25;;
16866;SDS011;8550;52.596;13.320;2023-06-10T20:01:28;5.60;;;2.22;;
16866;SDS011;8550;52.596;13.320;2023-06-10T20:06:32;7.17;;;2.43;;
16866;SDS011;8550;52.596;13.320;2023-06-10T20:11:34;7.53;;;2.53;;
16866;SDS011;8550;52.596;13.320;2023-06-10T20:16:36;7.50;;;2.50;;
16866;SDS011;8550;52.596;13.320;2023-06-10T20:21:39;7.15;;;2.50;;
16866;SDS011;8550;52.596;13.320;2023-06-10T20:26:41;8.07;;;2.77;;
16866;SDS011;8550;52.596;13.320;2023-06-10T20:31:43;7.07;;;1.92;;
16866;SDS011;8550;52.596;13.320;2023-06-10T20:36:47;5.60;;;1.85;;
16866;SDS011;8550;52.596;13.320;2023-06-10T20:41:49;5.43;;;1.90;;
16866;SDS011;8550;52.596;13.320;2023-06-10T20:46:51;5.60;;;1.67;;
16866;SDS011;8550;52.596;13.320;2023-06-10T20:51:54;12.07;;;2.67;;
16866;SDS011;8550;52.596;13.320;2023-06-10T20:56:56;7.80;;;2.00;;
16866;SDS011;8550;52.596;13.320;2023-06-10T21:01:58;7.97;;;2.20;;
16866;SDS011;8550;52.596;13.320;2023-06-10T21:07:01;8.90;;;2.30;;
16866;SDS011;8550;52.596;13.320;2023-06-10T21:12:04;6.30;;;2.20;;
16866;SDS011;8550;52.596;13.320;2023-06-10T21:17:06;4.77;;;2.10;;
16866;SDS011;8550;52.596;13.320;2023-06-10T21:22:09;4.88;;;2.03;;
16866;SDS011;8550;52.596;13.320;2023-06-10T21:27:11;5.72;;;2.17;;
16866;SDS011;8550;52.596;13.320;2023-06-10T21:32:15;8.40;;;2.30;;
16866;SDS011;8550;52.596;13.320;2023-06-10T21:37:19;9.20;;;2.30;;
16866;SDS011;8550;52.596;13.320;2023-06-10T21:42:21;6.47;;;2.13;;
16866;SDS011;8550;52.596;13.320;2023-06-10T21:47:23;5.77;;;2.37;;
16866;SDS011;8550;52.596;13.320;2023-06-10T21:52:26;8.33;;;2.50;;
16866;SDS011;8550;52.596;13.320;2023-06-10T21:57:28;8.05;;;2.40;;
16866;SDS011;8550;52.596;13.320;2023-06-10T22:02:30;7.78;;;3.78;;
16866;SDS011;8550;52.596;13.320;2023-06-10T22:07:33;9.60;;;2.77;;
16866;SDS011;8550;52.596;13.320;2023-06-10T22:12:35;8.80;;;2.30;;
16866;SDS011;8550;52.596;13.320;2023-06-10T22:17:37;9.25;;;2.80;;
16866;SDS011;8550;52.596;13.320;2023-06-10T22:22:40;5.37;;;2.60;;
16866;SDS011;8550;52.596;13.320;2023-06-10T22:27:42;8.30;;;2.50;;
16866;SDS011;8550;52.596;13.320;2023-06-10T22:32:44;6.82;;;2.40;;
16866;SDS011;8550;52.596;13.320;2023-06-10T22:37:48;6.27;;;2.57;;
16866;SDS011;8550;52.596;13.320;2023-06-10T22:42:50;5.13;;;2.60;;
16866;SDS011;8550;52.596;13.320;2023-06-10T22:47:51;5.80;;;2.38;;
16866;SDS011;8550;52.596;13.320;2023-06-10T22:52:55;7.93;;;2.25;;
16866;SDS011;8550;52.596;13.320;2023-06-10T22:57:57;4.87;;;1.90;;
16866;SDS011;8550;52.596;13.320;2023-06-10T23:02:59;5.75;;;2.67;;
16866;SDS011;8550;52.596;13.320;2023-06-10T23:08:03;4.53;;;2.10;;
16866;SDS011;8550;52.596;13.320;2023-06-10T23:13:05;8.20;;;2.40;;
16866;SDS011;8550;52.596;13.320;2023-06-10T23:18:07;4.90;;;1.98;;
16866;SDS011;8550;52.596;13.320;2023-06-10T23:23:10;7.07;;;2.38;;
16866;SDS011;8550;52.596;13.320;2023-06-10T23:28:13;6.10;;;2.63;;
16866;SDS011;8550;52.596;13.320;2023-06-10T23:33:15;5.93;;;2.50;;
16866;SDS011;8550;52.596;13.320;2023-06-10T23:38:19;7.03;;;2.60;;
16866;SDS011;8550;52.596;13.320;2023-06-10T23:43:21;5.45;;;2.08;;
16866;SDS011;8550;52.596;13.320;2023-06-10T23:48:23;7.27;;;2.53;;
16866;SDS011;8550;52.596;13.320;2023-06-10T23:53:26;4.70;;;1.88;;
16866;SDS011;8550;52.596;13.320;2023-06-10T23:58:28;9.02;;;2.00;;
